sensor_id;sensor_type;location;lat;lon;timestamp;temperature;humidity
66608;DHT22;53462;39.616;8.824;2022-10-16T00:02:06;17.50;99.90
66608;DHT22;53462;39.616;8.824;2022-10-16T00:04:32;17.60;99.90
66608;DHT22;53462;39.616;8.824;2022-10-16T00:06:58;17.50;99.90
66608;DHT22;53462;39.616;8.824;2022-10-16T00:09:24;17.50;99.90
66608;DHT22;53462;39.616;8.824;2022-10-16T00:11:50;17.50;99.90
66608;DHT22;53462;39.616;8.824;2022-10-16T00:14:16;17.40;99.90
66608;DHT22;53462;39.616;8.824;2022-10-16T00:16:42;17.30;99.90
66608;DHT22;53462;39.616;8.824;2022-10-16T00:19:09;17.30;99.90
66608;DHT22;53462;39.616;8.824;2022-10-16T00:21:36;17.20;99.90
66608;DHT22;53462;39.616;8.824;2022-10-16T00:24:06;17.20;99.90
66608;DHT22;53462;39.616;8.824;2022-10-16T00:26:35;17.10;99.90
66608;DHT22;53462;39.616;8.824;2022-10-16T00:29:01;17.10;99.90
66608;DHT22;53462;39.616;8.824;2022-10-16T00:31:27;17.00;99.90
66608;DHT22;53462;39.616;8.824;2022-10-16T00:33:53;17.00;99.90
66608;DHT22;53462;39.616;8.824;2022-10-16T00:36:22;17.00;99.90
66608;DHT22;53462;39.616;8.824;2022-10-16T00:38:53;16.90;99.90
66608;DHT22;53462;39.616;8.824;2022-10-16T00:41:21;16.90;99.90
66608;DHT22;53462;39.616;8.824;2022-10-16T00:43:53;17.10;99.90
66608;DHT22;53462;39.616;8.824;2022-10-16T00:46:24;17.00;99.90
66608;DHT22;53462;39.616;8.824;2022-10-16T00:51:26;17.00;99.90
66608;DHT22;53462;39.616;8.824;2022-10-16T00:53:54;17.00;99.90
66608;DHT22;53462;39.616;8.824;2022-10-16T00:56:20;17.00;99.90
66608;DHT22;53462;39.616;8.824;2022-10-16T00:58:46;17.00;99.90
66608;DHT22;53462;39.616;8.824;2022-10-16T01:01:13;16.90;99.90
66608;DHT22;53462;39.616;8.824;2022-10-16T01:03:39;16.80;99.90
66608;DHT22;53462;39.616;8.824;2022-10-16T01:09:40;16.80;99.90
66608;DHT22;53462;39.616;8.824;2022-10-16T01:12:16;16.70;99.90
66608;DHT22;53462;39.616;8.824;2022-10-16T01:18:05;16.60;99.90
66608;DHT22;53462;39.616;8.824;2022-10-16T01:20:36;16.60;99.90
66608;DHT22;53462;39.616;8.824;2022-10-16T01:28:55;16.60;99.90
66608;DHT22;53462;39.616;8.824;2022-10-16T01:31:25;16.60;99.90
66608;DHT22;53462;39.616;8.824;2022-10-16T01:34:04;16.70;99.90
66608;DHT22;53462;39.616;8.824;2022-10-16T01:36:39;16.80;99.90
66608;DHT22;53462;39.616;8.824;2022-10-16T01:39:06;16.80;99.90
66608;DHT22;53462;39.616;8.824;2022-10-16T01:41:38;16.80;99.90
66608;DHT22;53462;39.616;8.824;2022-10-16T01:44:14;16.80;99.90
66608;DHT22;53462;39.616;8.824;2022-10-16T01:46:46;16.70;99.90
66608;DHT22;53462;39.616;8.824;2022-10-16T01:49:14;16.70;99.90
66608;DHT22;53462;39.616;8.824;2022-10-16T01:51:41;16.70;99.90
66608;DHT22;53462;39.616;8.824;2022-10-16T01:54:09;16.70;99.90
66608;DHT22;53462;39.616;8.824;2022-10-16T01:56:39;16.60;99.90
66608;DHT22;53462;39.616;8.824;2022-10-16T01:59:15;16.50;99.90
66608;DHT22;53462;39.616;8.824;2022-10-16T02:01:47;16.50;99.90
66608;DHT22;53462;39.616;8.824;2022-10-16T02:04:22;16.50;99.90
66608;DHT22;53462;39.616;8.824;2022-10-16T02:06:50;16.40;99.90
66608;DHT22;53462;39.616;8.824;2022-10-16T02:09:16;16.30;99.90
66608;DHT22;53462;39.616;8.824;2022-10-16T02:11:43;16.40;99.90
66608;DHT22;53462;39.616;8.824;2022-10-16T02:14:09;16.50;99.90
66608;DHT22;53462;39.616;8.824;2022-10-16T02:16:41;16.50;99.90
66608;DHT22;53462;39.616;8.824;2022-10-16T02:19:12;16.50;99.90
66608;DHT22;53462;39.616;8.824;2022-10-16T02:21:58;16.50;99.90
66608;DHT22;53462;39.616;8.824;2022-10-16T02:24:50;16.40;99.90
66608;DHT22;53462;39.616;8.824;2022-10-16T02:27:48;16.30;99.90
66608;DHT22;53462;39.616;8.824;2022-10-16T02:32:53;16.00;99.90
66608;DHT22;53462;39.616;8.824;2022-10-16T02:35:21;16.00;99.90
66608;DHT22;53462;39.616;8.824;2022-10-16T02:37:50;16.10;99.90
66608;DHT22;53462;39.616;8.824;2022-10-16T02:40:17;16.30;99.90
66608;DHT22;53462;39.616;8.824;2022-10-16T02:42:43;16.30;99.90
66608;DHT22;53462;39.616;8.824;2022-10-16T02:45:11;16.40;99.90
66608;DHT22;53462;39.616;8.824;2022-10-16T02:47:37;16.50;99.90
66608;DHT22;53462;39.616;8.824;2022-10-16T02:50:03;16.60;99.90
66608;DHT22;53462;39.616;8.824;2022-10-16T02:52:29;16.60;99.90
66608;DHT22;53462;39.616;8.824;2022-10-16T02:54:55;16.60;99.90
66608;DHT22;53462;39.616;8.824;2022-10-16T02:57:22;16.60;99.90
66608;DHT22;53462;39.616;8.824;2022-10-16T02:59:48;16.50;99.90
66608;DHT22;53462;39.616;8.824;2022-10-16T03:02:14;16.50;99.90
66608;DHT22;53462;39.616;8.824;2022-10-16T03:04:40;16.50;99.90
66608;DHT22;53462;39.616;8.824;2022-10-16T03:07:06;16.30;99.90
66608;DHT22;53462;39.616;8.824;2022-10-16T03:09:32;16.10;99.90
66608;DHT22;53462;39.616;8.824;2022-10-16T03:11:58;16.00;99.90
66608;DHT22;53462;39.616;8.824;2022-10-16T03:14:23;16.10;99.90
66608;DHT22;53462;39.616;8.824;2022-10-16T03:16:49;16.20;99.90
66608;DHT22;53462;39.616;8.824;2022-10-16T03:19:18;16.30;99.90
66608;DHT22;53462;39.616;8.824;2022-10-16T03:21:44;16.30;99.90
66608;DHT22;53462;39.616;8.824;2022-10-16T03:24:10;16.30;99.90
66608;DHT22;53462;39.616;8.824;2022-10-16T03:26:36;16.50;99.90
66608;DHT22;53462;39.616;8.824;2022-10-16T03:29:02;17.00;99.90
66608;DHT22;53462;39.616;8.824;2022-10-16T03:31:29;17.30;96.60
66608;DHT22;53462;39.616;8.824;2022-10-16T03:33:56;17.40;94.30
66608;DHT22;53462;39.616;8.824;2022-10-16T03:36:22;17.30;93.20
66608;DHT22;53462;39.616;8.824;2022-10-16T03:38:48;17.30;92.90
66608;DHT22;53462;39.616;8.824;2022-10-16T03:41:14;17.30;92.70
66608;DHT22;53462;39.616;8.824;2022-10-16T03:43:40;17.10;93.30
66608;DHT22;53462;39.616;8.824;2022-10-16T03:46:06;17.00;93.70
66608;DHT22;53462;39.616;8.824;2022-10-16T03:48:31;16.90;94.50
66608;DHT22;53462;39.616;8.824;2022-10-16T03:50:58;16.60;95.20
66608;DHT22;53462;39.616;8.824;2022-10-16T03:53:24;16.40;96.30
66608;DHT22;53462;39.616;8.824;2022-10-16T03:55:50;16.30;97.30
66608;DHT22;53462;39.616;8.824;2022-10-16T03:58:17;16.40;98.30
66608;DHT22;53462;39.616;8.824;2022-10-16T04:00:43;16.30;98.40
66608;DHT22;53462;39.616;8.824;2022-10-16T04:03:10;16.20;98.90
66608;DHT22;53462;39.616;8.824;2022-10-16T04:05:36;16.20;99.80
66608;DHT22;53462;39.616;8.824;2022-10-16T04:08:03;16.20;99.90
66608;DHT22;53462;39.616;8.824;2022-10-16T04:10:29;16.20;99.90
66608;DHT22;53462;39.616;8.824;2022-10-16T04:12:55;16.30;99.90
66608;DHT22;53462;39.616;8.824;2022-10-16T04:15:25;16.30;99.90
66608;DHT22;53462;39.616;8.824;2022-10-16T04:17:51;16.10;99.90
66608;DHT22;53462;39.616;8.824;2022-10-16T04:20:17;16.00;99.90
66608;DHT22;53462;39.616;8.824;2022-10-16T04:22:43;16.10;99.90
66608;DHT22;53462;39.616;8.824;2022-10-16T04:25:09;16.10;99.90
66608;DHT22;53462;39.616;8.824;2022-10-16T04:27:37;16.10;99.90
66608;DHT22;53462;39.616;8.824;2022-10-16T04:30:04;16.10;99.90
66608;DHT22;53462;39.616;8.824;2022-10-16T04:32:30;16.20;99.90
66608;DHT22;53462;39.616;8.824;2022-10-16T04:34:56;16.30;99.90
66608;DHT22;53462;39.616;8.824;2022-10-16T04:37:25;16.40;99.90
66608;DHT22;53462;39.616;8.824;2022-10-16T04:39:52;16.40;99.90
66608;DHT22;53462;39.616;8.824;2022-10-16T04:42:19;16.50;99.40
66608;DHT22;53462;39.616;8.824;2022-10-16T04:44:45;16.40;98.90
66608;DHT22;53462;39.616;8.824;2022-10-16T04:47:12;16.40;98.90
66608;DHT22;53462;39.616;8.824;2022-10-16T04:49:38;16.40;99.10
66608;DHT22;53462;39.616;8.824;2022-10-16T04:52:04;16.40;99.00
66608;DHT22;53462;39.616;8.824;2022-10-16T04:54:30;16.30;99.20
66608;DHT22;53462;39.616;8.824;2022-10-16T04:56:56;16.30;99.30
66608;DHT22;53462;39.616;8.824;2022-10-16T04:59:22;16.30;99.50
66608;DHT22;53462;39.616;8.824;2022-10-16T05:01:49;16.20;99.60
66608;DHT22;53462;39.616;8.824;2022-10-16T05:04:15;16.00;99.90
66608;DHT22;53462;39.616;8.824;2022-10-16T05:06:41;15.80;99.90
66608;DHT22;53462;39.616;8.824;2022-10-16T05:09:07;15.70;99.90
66608;DHT22;53462;39.616;8.824;2022-10-16T05:11:33;15.70;99.90
66608;DHT22;53462;39.616;8.824;2022-10-16T05:14:00;15.70;99.90
66608;DHT22;53462;39.616;8.824;2022-10-16T05:16:26;15.80;99.90
66608;DHT22;53462;39.616;8.824;2022-10-16T05:18:53;15.80;99.90
66608;DHT22;53462;39.616;8.824;2022-10-16T05:21:19;15.90;99.90
66608;DHT22;53462;39.616;8.824;2022-10-16T05:23:45;15.90;99.90
66608;DHT22;53462;39.616;8.824;2022-10-16T05:26:11;15.90;99.90
66608;DHT22;53462;39.616;8.824;2022-10-16T05:28:37;15.80;99.90
66608;DHT22;53462;39.616;8.824;2022-10-16T05:31:07;15.80;99.90
66608;DHT22;53462;39.616;8.824;2022-10-16T05:33:33;15.80;99.90
66608;DHT22;53462;39.616;8.824;2022-10-16T05:36:04;15.70;99.90
66608;DHT22;53462;39.616;8.824;2022-10-16T05:38:31;15.80;99.90
66608;DHT22;53462;39.616;8.824;2022-10-16T05:40:57;15.80;99.90
66608;DHT22;53462;39.616;8.824;2022-10-16T05:43:23;15.90;99.90
66608;DHT22;53462;39.616;8.824;2022-10-16T05:46:04;16.00;99.90
66608;DHT22;53462;39.616;8.824;2022-10-16T05:48:31;16.20;99.90
66608;DHT22;53462;39.616;8.824;2022-10-16T05:50:59;16.40;99.90
66608;DHT22;53462;39.616;8.824;2022-10-16T05:53:28;16.50;99.90
66608;DHT22;53462;39.616;8.824;2022-10-16T05:55:55;16.80;99.90
66608;DHT22;53462;39.616;8.824;2022-10-16T05:58:22;17.20;99.90
66608;DHT22;53462;39.616;8.824;2022-10-16T06:00:59;17.50;99.90
66608;DHT22;53462;39.616;8.824;2022-10-16T06:03:26;17.70;99.90
66608;DHT22;53462;39.616;8.824;2022-10-16T06:05:52;17.90;99.90
66608;DHT22;53462;39.616;8.824;2022-10-16T06:08:19;18.10;99.20
66608;DHT22;53462;39.616;8.824;2022-10-16T06:10:46;18.20;98.30
66608;DHT22;53462;39.616;8.824;2022-10-16T06:13:13;18.30;97.50
66608;DHT22;53462;39.616;8.824;2022-10-16T06:15:41;18.50;96.50
66608;DHT22;53462;39.616;8.824;2022-10-16T06:18:11;18.70;95.50
66608;DHT22;53462;39.616;8.824;2022-10-16T06:20:37;18.90;94.70
66608;DHT22;53462;39.616;8.824;2022-10-16T06:23:03;19.00;94.20
66608;DHT22;53462;39.616;8.824;2022-10-16T06:25:30;19.20;93.60
66608;DHT22;53462;39.616;8.824;2022-10-16T06:27:57;19.60;91.70
66608;DHT22;53462;39.616;8.824;2022-10-16T06:30:23;19.50;91.30
66608;DHT22;53462;39.616;8.824;2022-10-16T06:32:48;19.50;92.20
66608;DHT22;53462;39.616;8.824;2022-10-16T06:35:14;19.40;92.20
66608;DHT22;53462;39.616;8.824;2022-10-16T06:37:41;19.40;92.50
66608;DHT22;53462;39.616;8.824;2022-10-16T06:40:07;19.70;92.00
66608;DHT22;53462;39.616;8.824;2022-10-16T06:42:33;19.70;92.00
66608;DHT22;53462;39.616;8.824;2022-10-16T06:44:58;20.00;90.50
66608;DHT22;53462;39.616;8.824;2022-10-16T06:47:24;20.10;89.90
66608;DHT22;53462;39.616;8.824;2022-10-16T06:49:50;20.10;89.70
66608;DHT22;53462;39.616;8.824;2022-10-16T06:52:16;20.30;89.50
66608;DHT22;53462;39.616;8.824;2022-10-16T06:54:42;20.40;88.20
66608;DHT22;53462;39.616;8.824;2022-10-16T06:57:08;20.40;88.50
66608;DHT22;53462;39.616;8.824;2022-10-16T06:59:34;20.60;87.80
66608;DHT22;53462;39.616;8.824;2022-10-16T07:02:00;21.20;85.80
66608;DHT22;53462;39.616;8.824;2022-10-16T07:04:26;21.90;82.20
66608;DHT22;53462;39.616;8.824;2022-10-16T07:06:51;22.00;81.10
66608;DHT22;53462;39.616;8.824;2022-10-16T07:09:17;23.20;77.30
66608;DHT22;53462;39.616;8.824;2022-10-16T07:11:43;23.50;72.80
66608;DHT22;53462;39.616;8.824;2022-10-16T07:14:17;23.40;74.20
66608;DHT22;53462;39.616;8.824;2022-10-16T07:16:43;23.00;75.80
66608;DHT22;53462;39.616;8.824;2022-10-16T07:19:09;22.90;75.90
66608;DHT22;53462;39.616;8.824;2022-10-16T07:21:37;23.40;76.20
66608;DHT22;53462;39.616;8.824;2022-10-16T07:24:10;24.60;70.20
66608;DHT22;53462;39.616;8.824;2022-10-16T07:26:37;24.10;71.20
66608;DHT22;53462;39.616;8.824;2022-10-16T07:29:15;23.60;73.80
66608;DHT22;53462;39.616;8.824;2022-10-16T07:31:42;23.60;73.10
66608;DHT22;53462;39.616;8.824;2022-10-16T07:34:08;23.70;72.90
66608;DHT22;53462;39.616;8.824;2022-10-16T07:36:35;26.00;66.00
66608;DHT22;53462;39.616;8.824;2022-10-16T07:39:01;27.40;60.40
66608;DHT22;53462;39.616;8.824;2022-10-16T07:41:27;27.80;58.60
66608;DHT22;53462;39.616;8.824;2022-10-16T07:43:54;27.60;58.30
66608;DHT22;53462;39.616;8.824;2022-10-16T07:46:22;28.70;56.50
66608;DHT22;53462;39.616;8.824;2022-10-16T07:48:48;29.60;54.10
66608;DHT22;53462;39.616;8.824;2022-10-16T07:51:17;29.20;53.00
66608;DHT22;53462;39.616;8.824;2022-10-16T07:53:44;29.20;54.10
66608;DHT22;53462;39.616;8.824;2022-10-16T07:56:10;29.10;54.40
66608;DHT22;53462;39.616;8.824;2022-10-16T07:58:37;30.70;51.80
66608;DHT22;53462;39.616;8.824;2022-10-16T08:01:09;30.00;50.50
66608;DHT22;53462;39.616;8.824;2022-10-16T08:03:35;30.40;50.90
66608;DHT22;53462;39.616;8.824;2022-10-16T08:06:02;29.50;52.50
66608;DHT22;53462;39.616;8.824;2022-10-16T08:08:29;30.50;52.50
66608;DHT22;53462;39.616;8.824;2022-10-16T08:10:55;29.90;52.40
66608;DHT22;53462;39.616;8.824;2022-10-16T08:13:21;30.50;51.00
66608;DHT22;53462;39.616;8.824;2022-10-16T08:15:47;29.90;52.90
66608;DHT22;53462;39.616;8.824;2022-10-16T08:18:14;30.80;49.40
66608;DHT22;53462;39.616;8.824;2022-10-16T08:20:41;30.90;50.00
66608;DHT22;53462;39.616;8.824;2022-10-16T08:23:09;30.40;51.40
66608;DHT22;53462;39.616;8.824;2022-10-16T08:25:36;31.50;50.00
66608;DHT22;53462;39.616;8.824;2022-10-16T08:28:07;32.00;49.20
66608;DHT22;53462;39.616;8.824;2022-10-16T08:30:33;30.90;49.70
66608;DHT22;53462;39.616;8.824;2022-10-16T08:33:01;30.90;49.50
66608;DHT22;53462;39.616;8.824;2022-10-16T08:35:27;31.90;47.50
66608;DHT22;53462;39.616;8.824;2022-10-16T08:37:53;32.10;46.60
66608;DHT22;53462;39.616;8.824;2022-10-16T08:40:29;31.90;47.40
66608;DHT22;53462;39.616;8.824;2022-10-16T08:48:48;32.50;45.90
66608;DHT22;53462;39.616;8.824;2022-10-16T08:51:24;31.70;47.30
66608;DHT22;53462;39.616;8.824;2022-10-16T08:53:56;31.30;47.70
66608;DHT22;53462;39.616;8.824;2022-10-16T08:56:24;32.60;46.10
66608;DHT22;53462;39.616;8.824;2022-10-16T08:58:51;32.60;45.00
66608;DHT22;53462;39.616;8.824;2022-10-16T09:01:19;32.40;46.20
66608;DHT22;53462;39.616;8.824;2022-10-16T09:04:04;32.80;44.90
66608;DHT22;53462;39.616;8.824;2022-10-16T09:06:46;32.40;46.50
66608;DHT22;53462;39.616;8.824;2022-10-16T09:20:35;33.00;43.60
66608;DHT22;53462;39.616;8.824;2022-10-16T09:25:30;31.70;46.00
66608;DHT22;53462;39.616;8.824;2022-10-16T09:27:56;30.80;45.10
66608;DHT22;53462;39.616;8.824;2022-10-16T09:30:23;29.10;48.50
66608;DHT22;53462;39.616;8.824;2022-10-16T09:32:52;27.90;51.70
66608;DHT22;53462;39.616;8.824;2022-10-16T09:35:22;28.30;52.80
66608;DHT22;53462;39.616;8.824;2022-10-16T09:37:51;28.10;51.20
66608;DHT22;53462;39.616;8.824;2022-10-16T09:40:33;28.00;52.50
66608;DHT22;53462;39.616;8.824;2022-10-16T09:45:54;28.50;53.50
66608;DHT22;53462;39.616;8.824;2022-10-16T09:48:21;27.80;54.10
66608;DHT22;53462;39.616;8.824;2022-10-16T09:50:59;27.70;56.00
66608;DHT22;53462;39.616;8.824;2022-10-16T09:53:43;27.60;54.50
66608;DHT22;53462;39.616;8.824;2022-10-16T09:56:11;27.60;55.50
66608;DHT22;53462;39.616;8.824;2022-10-16T09:58:56;27.80;55.70
66608;DHT22;53462;39.616;8.824;2022-10-16T10:01:27;27.80;54.00
66608;DHT22;53462;39.616;8.824;2022-10-16T10:03:56;28.00;55.00
66608;DHT22;53462;39.616;8.824;2022-10-16T10:06:33;28.00;55.20
66608;DHT22;53462;39.616;8.824;2022-10-16T10:09:04;28.30;56.10
66608;DHT22;53462;39.616;8.824;2022-10-16T10:14:35;27.70;57.50
66608;DHT22;53462;39.616;8.824;2022-10-16T10:28:04;28.10;51.30
66608;DHT22;53462;39.616;8.824;2022-10-16T10:52:34;27.70;52.10
66608;DHT22;53462;39.616;8.824;2022-10-16T11:01:18;27.40;52.10
66608;DHT22;53462;39.616;8.824;2022-10-16T11:04:12;27.90;51.50
66608;DHT22;53462;39.616;8.824;2022-10-16T11:06:51;27.30;50.00
66608;DHT22;53462;39.616;8.824;2022-10-16T11:09:24;27.40;52.50
66608;DHT22;53462;39.616;8.824;2022-10-16T11:12:05;27.60;51.60
66608;DHT22;53462;39.616;8.824;2022-10-16T11:17:27;27.40;50.30
66608;DHT22;53462;39.616;8.824;2022-10-16T11:23:01;27.50;52.00
66608;DHT22;53462;39.616;8.824;2022-10-16T11:25:31;27.50;52.20
66608;DHT22;53462;39.616;8.824;2022-10-16T11:31:09;27.30;51.80
66608;DHT22;53462;39.616;8.824;2022-10-16T11:33:41;27.60;50.90
66608;DHT22;53462;39.616;8.824;2022-10-16T11:36:23;27.80;51.10
66608;DHT22;53462;39.616;8.824;2022-10-16T11:39:18;27.70;50.60
66608;DHT22;53462;39.616;8.824;2022-10-16T11:41:55;27.80;51.50
66608;DHT22;53462;39.616;8.824;2022-10-16T11:49:32;27.80;51.40
66608;DHT22;53462;39.616;8.824;2022-10-16T11:54:47;27.80;51.10
66608;DHT22;53462;39.616;8.824;2022-10-16T11:57:24;27.70;51.30
66608;DHT22;53462;39.616;8.824;2022-10-16T11:59:55;27.60;51.20
66608;DHT22;53462;39.616;8.824;2022-10-16T12:02:50;27.80;50.60
66608;DHT22;53462;39.616;8.824;2022-10-16T12:10:25;27.50;52.60
66608;DHT22;53462;39.616;8.824;2022-10-16T12:12:53;27.20;52.50
66608;DHT22;53462;39.616;8.824;2022-10-16T12:15:29;27.40;52.10
66608;DHT22;53462;39.616;8.824;2022-10-16T12:17:56;27.40;52.50
66608;DHT22;53462;39.616;8.824;2022-10-16T12:20:33;27.50;52.00
66608;DHT22;53462;39.616;8.824;2022-10-16T12:23:03;27.60;52.10
66608;DHT22;53462;39.616;8.824;2022-10-16T12:25:34;27.30;52.70
66608;DHT22;53462;39.616;8.824;2022-10-16T12:30:41;27.20;53.50
66608;DHT22;53462;39.616;8.824;2022-10-16T12:33:23;27.40;54.70
66608;DHT22;53462;39.616;8.824;2022-10-16T12:35:50;27.60;55.20
66608;DHT22;53462;39.616;8.824;2022-10-16T12:38:21;27.30;55.70
66608;DHT22;53462;39.616;8.824;2022-10-16T12:41:07;27.10;56.90
66608;DHT22;53462;39.616;8.824;2022-10-16T12:43:45;27.20;57.10
66608;DHT22;53462;39.616;8.824;2022-10-16T12:48:39;27.50;56.60
66608;DHT22;53462;39.616;8.824;2022-10-16T12:51:23;27.30;56.50
66608;DHT22;53462;39.616;8.824;2022-10-16T12:54:11;27.00;57.10
66608;DHT22;53462;39.616;8.824;2022-10-16T13:16:32;26.60;58.30
66608;DHT22;53462;39.616;8.824;2022-10-16T13:21:50;27.00;57.30
66608;DHT22;53462;39.616;8.824;2022-10-16T13:27:18;26.80;58.30
66608;DHT22;53462;39.616;8.824;2022-10-16T13:29:54;26.60;57.50
66608;DHT22;53462;39.616;8.824;2022-10-16T13:32:26;26.60;58.40
66608;DHT22;53462;39.616;8.824;2022-10-16T13:34:52;26.70;58.80
66608;DHT22;53462;39.616;8.824;2022-10-16T13:37:22;26.30;59.70
66608;DHT22;53462;39.616;8.824;2022-10-16T13:39:49;26.50;59.60
66608;DHT22;53462;39.616;8.824;2022-10-16T13:42:27;26.60;59.30
66608;DHT22;53462;39.616;8.824;2022-10-16T13:44:55;26.50;58.80
66608;DHT22;53462;39.616;8.824;2022-10-16T13:47:29;26.40;59.20
66608;DHT22;53462;39.616;8.824;2022-10-16T13:50:05;26.20;60.80
66608;DHT22;53462;39.616;8.824;2022-10-16T13:52:32;26.30;59.90
66608;DHT22;53462;39.616;8.824;2022-10-16T13:54:58;26.30;61.60
66608;DHT22;53462;39.616;8.824;2022-10-16T13:57:24;26.00;61.80
66608;DHT22;53462;39.616;8.824;2022-10-16T13:59:51;25.90;62.80
66608;DHT22;53462;39.616;8.824;2022-10-16T14:02:22;25.90;62.60
66608;DHT22;53462;39.616;8.824;2022-10-16T14:04:51;25.90;63.20
66608;DHT22;53462;39.616;8.824;2022-10-16T14:07:24;25.80;63.00
66608;DHT22;53462;39.616;8.824;2022-10-16T14:09:51;25.80;63.60
66608;DHT22;53462;39.616;8.824;2022-10-16T14:12:18;25.60;63.40
66608;DHT22;53462;39.616;8.824;2022-10-16T14:14:47;25.50;63.80
66608;DHT22;53462;39.616;8.824;2022-10-16T14:17:33;25.70;64.00
66608;DHT22;53462;39.616;8.824;2022-10-16T14:20:04;25.40;65.50
66608;DHT22;53462;39.616;8.824;2022-10-16T14:22:39;25.40;65.50
66608;DHT22;53462;39.616;8.824;2022-10-16T14:28:16;25.50;66.50
66608;DHT22;53462;39.616;8.824;2022-10-16T14:30:58;25.40;66.50
66608;DHT22;53462;39.616;8.824;2022-10-16T14:38:38;25.20;67.30
66608;DHT22;53462;39.616;8.824;2022-10-16T14:41:04;25.00;66.40
66608;DHT22;53462;39.616;8.824;2022-10-16T14:43:39;25.00;67.00
66608;DHT22;53462;39.616;8.824;2022-10-16T14:46:13;24.80;67.10
66608;DHT22;53462;39.616;8.824;2022-10-16T14:48:42;24.80;67.30
66608;DHT22;53462;39.616;8.824;2022-10-16T14:51:13;24.70;68.50
66608;DHT22;53462;39.616;8.824;2022-10-16T14:53:40;24.70;69.20
66608;DHT22;53462;39.616;8.824;2022-10-16T14:56:08;24.70;68.30
66608;DHT22;53462;39.616;8.824;2022-10-16T14:58:35;24.70;68.60
66608;DHT22;53462;39.616;8.824;2022-10-16T15:01:01;24.70;68.10
66608;DHT22;53462;39.616;8.824;2022-10-16T15:03:27;24.60;68.40
66608;DHT22;53462;39.616;8.824;2022-10-16T15:05:53;24.40;69.20
66608;DHT22;53462;39.616;8.824;2022-10-16T15:08:19;24.40;70.20
66608;DHT22;53462;39.616;8.824;2022-10-16T15:10:45;24.50;70.30
66608;DHT22;53462;39.616;8.824;2022-10-16T15:13:13;24.50;70.50
66608;DHT22;53462;39.616;8.824;2022-10-16T15:15:45;24.20;70.40
66608;DHT22;53462;39.616;8.824;2022-10-16T15:18:12;24.20;70.80
66608;DHT22;53462;39.616;8.824;2022-10-16T15:20:41;24.10;69.70
66608;DHT22;53462;39.616;8.824;2022-10-16T15:23:21;24.00;70.30
66608;DHT22;53462;39.616;8.824;2022-10-16T15:25:54;24.00;71.10
66608;DHT22;53462;39.616;8.824;2022-10-16T15:28:22;24.00;72.00
66608;DHT22;53462;39.616;8.824;2022-10-16T15:30:52;24.00;72.20
66608;DHT22;53462;39.616;8.824;2022-10-16T15:33:24;24.00;71.40
66608;DHT22;53462;39.616;8.824;2022-10-16T15:35:53;23.80;72.20
66608;DHT22;53462;39.616;8.824;2022-10-16T15:38:20;23.90;72.40
66608;DHT22;53462;39.616;8.824;2022-10-16T15:40:47;23.70;71.50
66608;DHT22;53462;39.616;8.824;2022-10-16T15:43:13;23.60;71.90
66608;DHT22;53462;39.616;8.824;2022-10-16T15:45:40;23.40;72.00
66608;DHT22;53462;39.616;8.824;2022-10-16T15:48:06;23.50;72.40
66608;DHT22;53462;39.616;8.824;2022-10-16T15:50:33;23.40;72.90
66608;DHT22;53462;39.616;8.824;2022-10-16T15:52:59;23.40;73.70
66608;DHT22;53462;39.616;8.824;2022-10-16T15:55:25;23.30;73.80
66608;DHT22;53462;39.616;8.824;2022-10-16T15:57:51;23.30;74.50
66608;DHT22;53462;39.616;8.824;2022-10-16T16:00:19;23.20;74.60
66608;DHT22;53462;39.616;8.824;2022-10-16T16:02:52;23.10;75.30
66608;DHT22;53462;39.616;8.824;2022-10-16T16:05:19;23.00;75.60
66608;DHT22;53462;39.616;8.824;2022-10-16T16:07:45;22.90;75.90
66608;DHT22;53462;39.616;8.824;2022-10-16T16:10:11;22.80;76.70
66608;DHT22;53462;39.616;8.824;2022-10-16T16:12:38;22.80;77.00
66608;DHT22;53462;39.616;8.824;2022-10-16T16:15:05;22.70;77.30
66608;DHT22;53462;39.616;8.824;2022-10-16T16:17:33;22.60;77.80
66608;DHT22;53462;39.616;8.824;2022-10-16T16:19:59;22.60;77.90
66608;DHT22;53462;39.616;8.824;2022-10-16T16:22:25;22.40;78.30
66608;DHT22;53462;39.616;8.824;2022-10-16T16:24:51;22.30;78.90
66608;DHT22;53462;39.616;8.824;2022-10-16T16:27:17;22.30;79.50
66608;DHT22;53462;39.616;8.824;2022-10-16T16:29:42;22.30;79.90
66608;DHT22;53462;39.616;8.824;2022-10-16T16:32:08;22.10;80.30
66608;DHT22;53462;39.616;8.824;2022-10-16T16:34:34;22.00;81.30
66608;DHT22;53462;39.616;8.824;2022-10-16T16:37:00;22.00;81.40
66608;DHT22;53462;39.616;8.824;2022-10-16T16:39:26;22.00;82.00
66608;DHT22;53462;39.616;8.824;2022-10-16T16:41:52;21.80;82.90
66608;DHT22;53462;39.616;8.824;2022-10-16T16:44:18;21.80;83.10
66608;DHT22;53462;39.616;8.824;2022-10-16T16:46:44;21.70;83.60
66608;DHT22;53462;39.616;8.824;2022-10-16T16:49:12;21.70;84.10
66608;DHT22;53462;39.616;8.824;2022-10-16T16:51:38;21.70;84.50
66608;DHT22;53462;39.616;8.824;2022-10-16T16:54:05;21.50;85.20
66608;DHT22;53462;39.616;8.824;2022-10-16T16:56:32;21.50;85.70
66608;DHT22;53462;39.616;8.824;2022-10-16T16:58:59;21.50;86.10
66608;DHT22;53462;39.616;8.824;2022-10-16T17:01:27;21.40;86.50
66608;DHT22;53462;39.616;8.824;2022-10-16T17:03:55;21.40;86.90
66608;DHT22;53462;39.616;8.824;2022-10-16T17:06:23;21.30;87.60
66608;DHT22;53462;39.616;8.824;2022-10-16T17:08:50;21.20;87.80
66608;DHT22;53462;39.616;8.824;2022-10-16T17:11:21;21.10;88.60
66608;DHT22;53462;39.616;8.824;2022-10-16T17:13:49;21.20;88.70
66608;DHT22;53462;39.616;8.824;2022-10-16T17:16:16;21.10;89.20
66608;DHT22;53462;39.616;8.824;2022-10-16T17:18:42;21.00;89.90
66608;DHT22;53462;39.616;8.824;2022-10-16T17:21:09;21.00;90.30
66608;DHT22;53462;39.616;8.824;2022-10-16T17:23:36;21.00;90.30
66608;DHT22;53462;39.616;8.824;2022-10-16T17:26:04;21.00;90.40
66608;DHT22;53462;39.616;8.824;2022-10-16T17:28:30;21.00;90.50
66608;DHT22;53462;39.616;8.824;2022-10-16T17:30:56;20.90;90.60
66608;DHT22;53462;39.616;8.824;2022-10-16T17:33:22;20.90;90.90
66608;DHT22;53462;39.616;8.824;2022-10-16T17:35:48;20.80;91.40
66608;DHT22;53462;39.616;8.824;2022-10-16T17:38:14;20.80;91.90
66608;DHT22;53462;39.616;8.824;2022-10-16T17:40:41;20.70;92.20
66608;DHT22;53462;39.616;8.824;2022-10-16T17:43:08;20.70;92.50
66608;DHT22;53462;39.616;8.824;2022-10-16T17:45:37;20.70;92.60
66608;DHT22;53462;39.616;8.824;2022-10-16T17:48:05;20.60;93.00
66608;DHT22;53462;39.616;8.824;2022-10-16T17:50:31;20.60;93.10
66608;DHT22;53462;39.616;8.824;2022-10-16T17:52:56;20.60;93.50
66608;DHT22;53462;39.616;8.824;2022-10-16T17:55:22;20.50;93.80
66608;DHT22;53462;39.616;8.824;2022-10-16T17:57:48;20.50;93.80
66608;DHT22;53462;39.616;8.824;2022-10-16T18:00:14;20.60;93.80
66608;DHT22;53462;39.616;8.824;2022-10-16T18:02:41;20.40;94.20
66608;DHT22;53462;39.616;8.824;2022-10-16T18:05:08;20.40;94.70